createdAt,value
2022-09-09T00:01:26.236Z,100734.44
2022-09-09T00:04:01.417Z,100728.84
2022-09-09T00:06:32.481Z,100725.56
2022-09-09T00:09:08.870Z,100726.38
2022-09-09T00:11:43.294Z,100728.84
2022-09-09T00:14:20.310Z,100725.09
2022-09-09T00:16:55.260Z,100723.09
2022-09-09T00:19:28.267Z,100724.53
2022-09-09T00:22:07.247Z,100727.19
2022-09-09T00:24:43.671Z,100722.66
2022-09-09T00:27:20.982Z,100719.16
2022-09-09T00:29:55.425Z,100719.97
2022-09-09T00:32:24.159Z,100716.03
2022-09-09T00:34:54.386Z,100719.28
2022-09-09T00:37:26.213Z,100711.47
2022-09-09T00:39:59.293Z,100718.47
2022-09-09T00:42:34.063Z,100721.53
2022-09-09T00:45:13.106Z,100721.53
2022-09-09T00:47:48.198Z,100725.03
2022-09-09T00:50:37.783Z,100717.56
2022-09-09T00:53:22.363Z,100706.84
2022-09-09T00:56:00.111Z,100716.34
2022-09-09T00:58:28.562Z,100706.84
2022-09-09T01:01:04.231Z,100707.06
2022-09-09T01:03:37.070Z,100710.59
2022-09-09T01:06:18.182Z,100702.75
2022-09-09T01:09:13.627Z,100698.44
2022-09-09T01:11:54.778Z,100691.19
2022-09-09T01:14:35.301Z,100701.34
2022-09-09T01:17:12.961Z,100696.34
2022-09-09T01:19:52.470Z,100695.06
2022-09-09T01:22:28.149Z,100702.53
2022-09-09T01:25:22.161Z,100707.66
2022-09-09T01:27:53.260Z,100701.03
2022-09-09T01:30:21.277Z,100704.31
2022-09-09T01:32:51.286Z,100693.13
2022-09-09T01:35:39.491Z,100684.63
2022-09-09T01:38:07.753Z,100687.06
2022-09-09T01:40:35.505Z,100685.22
2022-09-09T01:43:04.842Z,100693.03
2022-09-09T01:45:33.071Z,100696.78
2022-09-09T01:48:01.566Z,100697.16
2022-09-09T01:50:29.145Z,100695.28
2022-09-09T01:53:00.336Z,100702.88
2022-09-09T01:55:32.554Z,100701.63
2022-09-09T01:58:16.981Z,100702.41
2022-09-09T02:00:53.345Z,100702.41
2022-09-09T02:03:26.614Z,100711.53
2022-09-09T02:06:02.779Z,100708.03
2022-09-09T02:08:39.818Z,100706.19
2022-09-09T02:11:13.107Z,100715.63
2022-09-09T02:13:43.479Z,100712.38
2022-09-09T02:16:15.546Z,100710.47
2022-09-09T02:18:48.927Z,100705.94
2022-09-09T02:21:18.385Z,100700.56
2022-09-09T02:23:48.795Z,100696.72
2022-09-09T02:26:21.145Z,100692.00
2022-09-09T02:28:51.644Z,100694.09
2022-09-09T02:31:21.925Z,100693.47
2022-09-09T02:33:54.751Z,100698.50
2022-09-09T02:36:26.102Z,100699.09
2022-09-09T02:38:54.876Z,100698.50
2022-09-09T02:41:26.093Z,100698.50
2022-09-09T02:43:54.949Z,100705.16
2022-09-09T02:46:37.901Z,100698.72
2022-09-09T02:49:11.511Z,100704.09
2022-09-09T02:51:47.286Z,100704.31
2022-09-09T02:54:26.057Z,100698.97
2022-09-09T02:56:55.610Z,100702.47
2022-09-09T02:59:27.025Z,100710.28
2022-09-09T03:01:55.079Z,100713.56
2022-09-09T03:04:22.686Z,100704.47
2022-09-09T03:06:50.298Z,100709.59
2022-09-09T03:09:18.029Z,100706.31
2022-09-09T03:11:45.921Z,100704.22
2022-09-09T03:14:13.786Z,100704.47
2022-09-09T03:16:43.913Z,100706.13
2022-09-09T03:19:11.485Z,100710.66
2022-09-09T03:21:39.502Z,100714.38
2022-09-09T03:24:07.528Z,100714.97
2022-09-09T03:26:35.445Z,100716.84
2022-09-09T03:29:03.030Z,100720.81
2022-09-09T03:31:31.157Z,100706.56
2022-09-09T03:34:00.579Z,100698.50
2022-09-09T03:36:29.060Z,100711.09
2022-09-09T03:38:57.089Z,100706.78
2022-09-09T03:41:25.666Z,100714.00
2022-09-09T03:43:53.534Z,100713.19
2022-09-09T03:46:21.347Z,100717.13
2022-09-09T03:48:48.950Z,100717.13
2022-09-09T03:51:17.981Z,100727.28
2022-09-09T03:53:46.013Z,100724.84
2022-09-09T03:56:13.554Z,100725.03
2022-09-09T03:58:41.862Z,100722.16
2022-09-09T04:01:14.185Z,100718.63
2022-09-09T04:03:43.312Z,100715.97
2022-09-09T04:06:14.206Z,100725.03
2022-09-09T04:08:43.234Z,100730.19
2022-09-09T04:11:11.078Z,100723.19
2022-09-09T04:13:40.732Z,100720.72
2022-09-09T04:16:09.397Z,100717.00
2022-09-09T04:18:37.038Z,100714.75
2022-09-09T04:21:06.965Z,100714.38
2022-09-09T04:23:35.744Z,100716.47
2022-09-09T04:26:05.727Z,100725.56
2022-09-09T04:28:36.397Z,100720.44
2022-09-09T04:31:10.125Z,100724.72
2022-09-09T04:33:40.399Z,100715.06
2022-09-09T04:36:08.745Z,100717.94
2022-09-09T04:38:36.361Z,100715.94
2022-09-09T04:41:05.773Z,100730.19
2022-09-09T04:43:33.565Z,100739.03
2022-09-09T04:46:01.244Z,100730.78
2022-09-09T04:48:28.882Z,100732.44
2022-09-09T04:50:58.221Z,100733.91
2022-09-09T04:53:26.286Z,100735.75
2022-09-09T04:55:54.165Z,100739.84
2022-09-09T04:58:24.561Z,100744.63
2022-09-09T05:00:52.881Z,100747.31
2022-09-09T05:03:20.526Z,100753.28
2022-09-09T05:05:48.135Z,100760.50
2022-09-09T05:08:15.934Z,100751.72
2022-09-09T05:10:43.802Z,100759.13
2022-09-09T05:13:12.184Z,100762.06
2022-09-09T05:15:41.259Z,100768.63
2022-09-09T05:18:09.634Z,100770.25
2022-09-09T05:20:37.281Z,100766.53
2022-09-09T05:23:04.816Z,100769.44
2022-09-09T05:25:32.341Z,100771.91
2022-09-09T05:28:00.457Z,100774.00
2022-09-09T05:30:27.982Z,100781.44
2022-09-09T05:32:59.005Z,100775.25
2022-09-09T05:35:26.553Z,100771.91
2022-09-09T05:37:54.089Z,100774.34
2022-09-09T05:40:22.412Z,100771.09
2022-09-09T05:42:50.351Z,100774.34
2022-09-09T05:45:17.961Z,100777.66
2022-09-09T05:47:45.479Z,100776.41
2022-09-09T05:50:16.721Z,100770.19
2022-09-09T05:52:45.438Z,100769.31
2022-09-09T05:55:12.989Z,100771.13
2022-09-09T05:57:41.282Z,100763.00
2022-09-09T06:00:10.321Z,100771.56
2022-09-09T06:02:39.880Z,100776.50
2022-09-09T06:05:09.337Z,100780.38
2022-09-09T06:07:38.350Z,100778.34
2022-09-09T06:10:06.980Z,100788.44
2022-09-09T06:12:34.546Z,100784.63
2022-09-09T06:15:02.186Z,100790.25
2022-09-09T06:17:29.734Z,100784.47
2022-09-09T06:19:57.253Z,100785.31
2022-09-09T06:22:24.843Z,100786.09
2022-09-09T06:24:54.530Z,100793.72
2022-09-09T06:27:22.061Z,100794.47
2022-09-09T06:29:49.957Z,100789.25
2022-09-09T06:32:18.208Z,100783.41
2022-09-09T06:34:46.340Z,100784.03
2022-09-09T06:37:13.919Z,100800.59
2022-09-09T06:39:41.840Z,100804.25
2022-09-09T06:42:10.833Z,100806.94
2022-09-09T06:44:38.382Z,100808.09
2022-09-09T06:47:06.450Z,100812.59
2022-09-09T06:49:34.021Z,100817.69
2022-09-09T06:52:01.571Z,100813.19
2022-09-09T06:54:29.471Z,100821.63
2022-09-09T06:56:57.345Z,100814.13
2022-09-09T06:59:26.897Z,100812.06
2022-09-09T07:01:56.270Z,100812.06
2022-09-09T07:04:24.037Z,100822.53
2022-09-09T07:06:53.429Z,100818.63
2022-09-09T07:09:21.123Z,100833.28
2022-09-09T07:11:51.616Z,100814.09
2022-09-09T07:14:19.225Z,100826.31
2022-09-09T07:16:48.601Z,100820.75
2022-09-09T07:19:16.782Z,100817.19
2022-09-09T07:21:45.682Z,100827.59
2022-09-09T07:24:13.733Z,100819.06
2022-09-09T07:26:42.469Z,100812.03
2022-09-09T07:29:10.481Z,100813.13
2022-09-09T07:31:40.821Z,100813.00
2022-09-09T07:34:10.334Z,100806.59
2022-09-09T07:36:40.926Z,100809.19
2022-09-09T07:39:10.247Z,100802.78
2022-09-09T07:41:40.721Z,100812.03
2022-09-09T07:44:11.695Z,100818.56
2022-09-09T07:46:40.617Z,100819.50
2022-09-09T07:49:10.428Z,100813.78
2022-09-09T07:51:40.736Z,100818.06
2022-09-09T07:54:11.182Z,100819.47
2022-09-09T07:56:40.404Z,100821.53
2022-09-09T07:59:09.651Z,100826.84
2022-09-09T08:01:40.387Z,100825.78
2022-09-09T08:04:11.622Z,100817.47
2022-09-09T08:06:40.770Z,100827.94
2022-09-09T08:09:09.982Z,100826.13
2022-09-09T08:11:39.131Z,100831.25
2022-09-09T08:14:07.052Z,100824.63
2022-09-09T08:16:37.417Z,100821.91
2022-09-09T08:19:06.508Z,100817.09
2022-09-09T08:21:37.491Z,100828.03
2022-09-09T08:24:06.871Z,100831.50
2022-09-09T08:26:36.746Z,100828.34
2022-09-09T08:29:06.072Z,100828.47
2022-09-09T08:31:35.801Z,100829.00
2022-09-09T08:34:04.454Z,100831.59
2022-09-09T08:36:35.777Z,100833.63
2022-09-09T08:39:04.775Z,100830.56
2022-09-09T08:41:46.938Z,100825.03
2022-09-09T08:44:24.141Z,100830.31
2022-09-09T08:47:00.912Z,100827.56
2022-09-09T08:49:50.732Z,100824.47
2022-09-09T08:52:23.866Z,100828.97
2022-09-09T08:54:52.923Z,100835.69
2022-09-09T08:57:27.615Z,100844.94
2022-09-09T08:59:58.534Z,100851.41
2022-09-09T09:02:29.850Z,100851.66
2022-09-09T09:05:18.161Z,100850.06
2022-09-09T09:07:59.886Z,100850.13
2022-09-09T09:10:42.755Z,100857.78
2022-09-09T09:13:17.838Z,100861.44
2022-09-09T09:15:48.894Z,100860.44
2022-09-09T09:18:18.993Z,100862.81
2022-09-09T09:20:55.537Z,100857.22
2022-09-09T09:23:27.131Z,100865.81
2022-09-09T09:25:58.550Z,100868.53
2022-09-09T09:28:27.578Z,100859.66
2022-09-09T09:30:59.756Z,100861.91
2022-09-09T09:33:33.846Z,100857.38
2022-09-09T09:36:01.568Z,100855.31
2022-09-09T09:41:19.305Z,100858.91
2022-09-09T09:43:55.854Z,100857.53
2022-09-09T09:46:26.571Z,100855.31
2022-09-09T09:49:02.142Z,100860.50
2022-09-09T09:51:31.350Z,100863.78
2022-09-09T09:54:23.958Z,100854.78
2022-09-09T09:56:51.610Z,100854.19
2022-09-09T09:59:38.652Z,100869.25
2022-09-09T10:02:25.715Z,100869.16
2022-09-09T10:05:03.502Z,100860.97
2022-09-09T10:07:31.201Z,100858.38
2022-09-09T10:10:00.407Z,100857.38
2022-09-09T10:12:45.167Z,100857.41
2022-09-09T10:15:31.542Z,100855.78
2022-09-09T10:18:10.727Z,100854.69
2022-09-09T10:20:47.774Z,100857.94
2022-09-09T10:23:31.885Z,100861.19
2022-09-09T10:26:15.051Z,100862.00
2022-09-09T10:29:08.854Z,100877.78
2022-09-09T10:31:47.694Z,100882.13
2022-09-09T10:34:29.782Z,100880.47
2022-09-09T10:36:59.323Z,100876.09
2022-09-09T10:39:40.686Z,100877.19
2022-09-09T10:42:16.165Z,100885.63
2022-09-09T10:45:08.907Z,100886.13
2022-09-09T10:47:50.269Z,100885.88
2022-09-09T10:53:50.042Z,100882.25
2022-09-09T10:56:20.770Z,100880.69
2022-09-09T10:58:54.357Z,100883.78
2022-09-09T11:01:26.223Z,100881.63
2022-09-09T11:03:59.727Z,100881.81
2022-09-09T11:06:34.046Z,100884.56
2022-09-09T11:09:04.514Z,100880.47
2022-09-09T11:11:37.126Z,100892.78
2022-09-09T11:14:13.807Z,100881.03
2022-09-09T11:16:46.059Z,100882.72
2022-09-09T11:19:22.266Z,100882.47
2022-09-09T11:21:52.024Z,100887.16
2022-09-09T11:24:25.703Z,100873.72
2022-09-09T11:26:58.050Z,100883.88
2022-09-09T11:30:06.906Z,100884.94
2022-09-09T11:33:04.314Z,100885.41
2022-09-09T11:35:46.102Z,100892.13
2022-09-09T11:38:25.953Z,100881.63
2022-09-09T11:41:00.369Z,100884.53
2022-09-09T11:43:36.066Z,100888.50
2022-09-09T11:46:05.393Z,100891.59
2022-09-09T11:48:38.556Z,100893.25
2022-09-09T11:51:12.108Z,100883.41
2022-09-09T11:53:53.976Z,100883.41
2022-09-09T11:56:31.710Z,100890.66
2022-09-09T11:59:02.987Z,100886.22
2022-09-09T12:01:42.377Z,100887.91
2022-09-09T12:04:37.708Z,100892.22
2022-09-09T12:07:24.735Z,100892.16
2022-09-09T12:09:55.011Z,100895.63
2022-09-09T12:12:28.449Z,100891.88
2022-09-09T12:15:21.831Z,100890.47
2022-09-09T12:17:52.567Z,100880.75
2022-09-09T12:20:22.967Z,100884.53
2022-09-09T12:23:08.572Z,100894.09
2022-09-09T12:25:49.563Z,100892.88
2022-09-09T12:28:21.177Z,100894.72
2022-09-09T12:31:00.759Z,100891.25
2022-09-09T12:33:36.997Z,100899.44
2022-09-09T12:36:07.837Z,100895.25
2022-09-09T12:38:38.877Z,100884.38
2022-09-09T12:41:07.051Z,100885.28
2022-09-09T12:43:34.773Z,100886.97
2022-09-09T12:46:06.219Z,100880.81
2022-09-09T12:48:39.051Z,100888.28
2022-09-09T12:51:18.658Z,100884.38
2022-09-09T12:53:48.219Z,100881.25
2022-09-09T12:56:21.557Z,100879.31
2022-09-09T12:58:52.514Z,100878.44
2022-09-09T13:01:24.164Z,100871.69
2022-09-09T13:03:53.945Z,100874.09
2022-09-09T13:06:28.645Z,100868.63
2022-09-09T13:08:59.457Z,100874.66
2022-09-09T13:11:31.242Z,100872.69
2022-09-09T13:14:00.357Z,100872.19
2022-09-09T13:16:32.803Z,100877.56
2022-09-09T13:19:03.341Z,100869.97
2022-09-09T13:21:35.839Z,100867.34
2022-09-09T13:24:05.138Z,100873.25
2022-09-09T13:26:32.886Z,100878.34
2022-09-09T13:29:17.395Z,100878.16
2022-09-09T13:31:45.038Z,100870.09
2022-09-09T13:34:15.997Z,100880.38
2022-09-09T13:36:43.922Z,100876.78
2022-09-09T13:39:18.894Z,100870.38
2022-09-09T13:41:49.426Z,100875.78
2022-09-09T13:44:24.555Z,100878.44
2022-09-09T13:47:06.785Z,100869.91
2022-09-09T13:49:38.658Z,100879.09
2022-09-09T13:52:10.914Z,100875.16
2022-09-09T13:54:38.471Z,100872.97
2022-09-09T13:57:06.463Z,100867.41
2022-09-09T14:02:22.281Z,100872.19
2022-09-09T14:04:55.950Z,100883.19
2022-09-09T14:07:23.847Z,100876.78
2022-09-09T14:09:52.719Z,100874.63
2022-09-09T14:12:21.105Z,100871.00
2022-09-09T14:14:48.779Z,100864.97
2022-09-09T14:17:16.326Z,100872.13
2022-09-09T14:19:45.718Z,100867.53
2022-09-09T14:22:14.628Z,100866.09
2022-09-09T14:24:42.792Z,100862.72
2022-09-09T14:27:10.329Z,100858.75
2022-09-09T14:29:37.905Z,100861.59
2022-09-09T14:32:09.421Z,100861.59
2022-09-09T14:34:39.741Z,100866.06
2022-09-09T14:37:07.283Z,100867.56
2022-09-09T14:39:36.243Z,100875.44
2022-09-09T14:42:04.163Z,100865.75
2022-09-09T14:46:59.503Z,100869.69
2022-09-09T14:49:27.046Z,100868.88
2022-09-09T14:51:54.589Z,100868.06
2022-09-09T14:54:23.966Z,100859.97
2022-09-09T14:56:52.894Z,100866.78
2022-09-09T14:59:20.449Z,100862.78
2022-09-09T15:01:48.121Z,100861.16
2022-09-09T15:04:16.103Z,100857.66
2022-09-09T15:06:45.463Z,100860.94
2022-09-09T15:09:13.114Z,100858.72
2022-09-09T15:11:40.911Z,100857.38
2022-09-09T15:14:10.902Z,100861.22
2022-09-09T15:16:39.787Z,100859.31
2022-09-09T15:19:07.402Z,100855.78
2022-09-09T15:21:37.072Z,100862.81
2022-09-09T15:24:08.187Z,100859.31
2022-09-09T15:26:37.192Z,100858.75
2022-09-09T15:29:05.100Z,100847.88
2022-09-09T15:31:34.353Z,100860.06
2022-09-09T15:34:03.663Z,100854.91
2022-09-09T15:36:33.192Z,100857.53
2022-09-09T15:39:01.609Z,100847.72
2022-09-09T15:41:30.049Z,100850.88
2022-09-09T15:43:58.569Z,100860.06
2022-09-09T15:46:30.501Z,100856.94
2022-09-09T15:49:04.428Z,100866.13
2022-09-09T15:51:47.432Z,100868.22
2022-09-09T15:54:17.687Z,100886.31
2022-09-09T15:56:46.350Z,100891.59
2022-09-09T15:59:14.547Z,100901.34
2022-09-09T16:01:43.099Z,100901.19
2022-09-09T16:04:12.582Z,100913.28
2022-09-09T16:06:40.711Z,100917.50
2022-09-09T16:09:09.370Z,100926.91
2022-09-09T16:11:38.988Z,100927.84
2022-09-09T16:14:07.376Z,100942.00
2022-09-09T16:16:36.086Z,100945.31
2022-09-09T16:19:06.278Z,100969.41
2022-09-09T16:21:38.452Z,100990.34
2022-09-09T16:24:07.754Z,100996.50
2022-09-09T16:26:38.115Z,101001.59
2022-09-09T16:29:05.837Z,100990.63
2022-09-09T16:31:34.100Z,100994.47
2022-09-09T16:34:03.863Z,100990.88
2022-09-09T16:36:34.965Z,100971.97
2022-09-09T16:39:05.712Z,100960.38
2022-09-09T16:41:33.918Z,100961.75
2022-09-09T16:44:03.869Z,100957.66
2022-09-09T16:46:32.890Z,100961.41
2022-09-09T16:49:01.554Z,100963.88
2022-09-09T16:51:32.130Z,100964.47
2022-09-09T16:54:01.138Z,100966.81
2022-09-09T16:56:33.003Z,100974.31
2022-09-09T16:59:03.053Z,100972.34
2022-09-09T17:01:33.731Z,100969.88
2022-09-09T17:04:03.160Z,100973.03
2022-09-09T17:06:31.776Z,100968.84
2022-09-09T17:09:02.257Z,100981.38
2022-09-09T17:11:31.760Z,100987.47
2022-09-09T17:14:01.102Z,100974.34
2022-09-09T17:16:30.828Z,100981.25
2022-09-09T17:18:59.846Z,100981.50
2022-09-09T17:21:29.621Z,100984.53
2022-09-09T17:23:58.409Z,100983.69
2022-09-09T17:26:28.549Z,100993.78
2022-09-09T17:28:59.825Z,100984.75
2022-09-09T17:31:28.494Z,100988.59
2022-09-09T17:33:56.930Z,100993.63
2022-09-09T17:36:26.095Z,100997.84
2022-09-09T17:38:54.233Z,100995.00
2022-09-09T17:41:23.955Z,101004.00
2022-09-09T17:43:52.243Z,100997.66
2022-09-09T17:46:23.816Z,100992.28
2022-09-09T17:48:54.589Z,101004.28
2022-09-09T17:51:25.894Z,101001.84
2022-09-09T17:53:55.722Z,101003.34
2022-09-09T17:56:24.907Z,100992.44
2022-09-09T17:58:53.887Z,100998.75
2022-09-09T18:01:24.765Z,101003.16
2022-09-09T18:03:52.865Z,100999.03
2022-09-09T18:06:22.237Z,100993.97
2022-09-09T18:08:51.433Z,101000.84
2022-09-09T18:11:20.294Z,101005.66
2022-09-09T18:13:50.889Z,101009.50
2022-09-09T18:16:19.251Z,100999.63
2022-09-09T18:18:49.437Z,101004.78
2022-09-09T18:21:18.774Z,101005.81
2022-09-09T18:23:49.390Z,100996.13
2022-09-09T18:26:20.021Z,100992.59
2022-09-09T18:28:50.530Z,101000.09
2022-09-09T18:31:19.648Z,101003.81
2022-09-09T18:33:50.413Z,101005.66
2022-09-09T18:36:20.918Z,100994.31
2022-09-09T18:38:48.973Z,100994.78
2022-09-09T18:41:17.726Z,101002.03
2022-09-09T18:43:46.290Z,101000.59
2022-09-09T18:46:16.116Z,101000.81
2022-09-09T18:48:45.634Z,101000.47
2022-09-09T18:51:17.147Z,101009.78
2022-09-09T18:53:45.129Z,100994.31
2022-09-09T18:56:14.302Z,101001.19
2022-09-09T18:58:44.062Z,101005.38
2022-09-09T19:01:13.792Z,101005.00
2022-09-09T19:03:41.554Z,101010.00
2022-09-09T19:06:12.374Z,101019.78
2022-09-09T19:08:43.011Z,101024.19
2022-09-09T19:11:12.405Z,101018.19
2022-09-09T19:13:40.358Z,101028.75
2022-09-09T19:16:10.170Z,101031.28
2022-09-09T19:18:38.633Z,101037.56
2022-09-09T19:21:13.766Z,101041.72
2022-09-09T19:23:42.658Z,101053.94
2022-09-09T19:26:11.064Z,101045.50
2022-09-09T19:28:39.738Z,101050.50
2022-09-09T19:31:09.558Z,101048.25
2022-09-09T19:33:38.063Z,101047.03
2022-09-09T19:36:09.262Z,101057.38
2022-09-09T19:38:37.262Z,101058.25
2022-09-09T19:41:08.251Z,101051.69
2022-09-09T19:43:35.814Z,101055.41
2022-09-09T19:46:06.580Z,101046.13
2022-09-09T19:48:37.377Z,101036.66
2022-09-09T19:51:05.406Z,101039.56
2022-09-09T19:53:33.610Z,101034.63
2022-09-09T19:56:03.494Z,101032.13
2022-09-09T19:58:34.338Z,101031.75
2022-09-09T20:01:10.639Z,101028.47
2022-09-09T20:03:39.439Z,101027.03
2022-09-09T20:06:08.349Z,101025.22
2022-09-09T20:08:37.996Z,101031.03
2022-09-09T20:11:06.781Z,101026.91
2022-09-09T20:13:38.813Z,101022.19
2022-09-09T20:16:08.511Z,101028.81
2022-09-09T20:18:39.297Z,101025.53
2022-09-09T20:21:09.554Z,101032.56
2022-09-09T20:23:38.295Z,101048.47
2022-09-09T20:26:08.426Z,101045.41
2022-09-09T20:28:39.362Z,101040.06
2022-09-09T20:31:08.315Z,101034.50
2022-09-09T20:33:36.799Z,101034.72
2022-09-09T20:36:11.425Z,101032.19
2022-09-09T20:38:42.783Z,101039.44
2022-09-09T20:41:14.277Z,101042.34
2022-09-09T20:43:47.638Z,101035.53
2022-09-09T20:46:15.345Z,101041.94
2022-09-09T20:48:43.154Z,101032.44
2022-09-09T20:51:11.462Z,101044.44
2022-09-09T20:53:39.370Z,101048.56
2022-09-09T20:56:08.116Z,101042.81
2022-09-09T20:58:36.980Z,101042.44
2022-09-09T21:01:07.452Z,101037.50
2022-09-09T21:03:37.886Z,101037.06
2022-09-09T21:06:06.849Z,101029.22
2022-09-09T21:08:36.050Z,101027.81
2022-09-09T21:11:04.287Z,101032.97
2022-09-09T21:13:33.238Z,101037.50
2022-09-09T21:16:01.888Z,101041.22
2022-09-09T21:18:30.897Z,101037.31
2022-09-09T21:20:58.502Z,101045.78
2022-09-09T21:23:26.163Z,101043.72
2022-09-09T21:25:54.014Z,101044.56
2022-09-09T21:28:22.273Z,101053.84
2022-09-09T21:30:51.795Z,101057.56
2022-09-09T21:33:22.260Z,101061.47
2022-09-09T21:35:51.629Z,101056.53
2022-09-09T21:38:25.068Z,101068.69
2022-09-09T21:40:53.691Z,101072.63
2022-09-09T21:43:23.494Z,101071.41
2022-09-09T21:45:51.531Z,101067.69
2022-09-09T21:48:19.681Z,101075.72
2022-09-09T21:50:48.782Z,101081.50
2022-09-09T21:53:20.282Z,101077.78
2022-09-09T21:55:49.486Z,101079.66
2022-09-09T21:58:18.452Z,101079.22
2022-09-09T22:00:47.657Z,101082.97
2022-09-09T22:03:17.091Z,101082.13
2022-09-09T22:05:48.777Z,101083.56
2022-09-09T22:08:21.147Z,101086.47
2022-09-09T22:10:48.782Z,101085.03
2022-09-09T22:13:17.877Z,101067.91
2022-09-09T22:15:46.738Z,101073.69
2022-09-09T22:18:15.965Z,101075.56
2022-09-09T22:20:47.074Z,101077.19
2022-09-09T22:23:15.014Z,101068.97
2022-09-09T22:25:44.669Z,101071.63
2022-09-09T22:28:12.390Z,101068.97
2022-09-09T22:30:39.961Z,101070.19
2022-09-09T22:33:09.599Z,101069.56
2022-09-09T22:35:41.847Z,101072.66
2022-09-09T22:38:10.024Z,101077.19
2022-09-09T22:40:38.053Z,101081.31
2022-09-09T22:43:08.069Z,101086.25
2022-09-09T22:45:35.766Z,101091.59
2022-09-09T22:48:04.857Z,101083.16
2022-09-09T22:50:40.122Z,101083.75
2022-09-09T22:53:13.069Z,101087.69
2022-09-09T22:55:40.649Z,101092.81
2022-09-09T22:58:10.037Z,101081.31
2022-09-09T23:00:41.701Z,101092.81
2022-09-09T23:03:09.281Z,101084.19
2022-09-09T23:05:38.392Z,101089.34
2022-09-09T23:08:06.066Z,101095.50
2022-09-09T23:10:33.770Z,101097.38
2022-09-09T23:13:01.699Z,101097.75
2022-09-09T23:15:31.345Z,101100.25
2022-09-09T23:17:59.057Z,101092.00
2022-09-09T23:20:26.799Z,101095.50
2022-09-09T23:22:54.958Z,101092.81
2022-09-09T23:25:22.766Z,101085.84
2022-09-09T23:27:50.285Z,101091.59
2022-09-09T23:30:18.236Z,101086.66
2022-09-09T23:32:49.914Z,101084.41
2022-09-09T23:35:17.697Z,101074.94
2022-09-09T23:37:45.250Z,101081.72
2022-09-09T23:40:12.819Z,101080.47
2022-09-09T23:42:40.522Z,101074.94
2022-09-09T23:45:09.338Z,101074.31
2022-09-09T23:47:36.866Z,101070.19
2022-09-09T23:50:07.655Z,101061.94
2022-09-09T23:52:35.946Z,101067.50
2022-09-09T23:55:03.504Z,101062.34
2022-09-09T23:57:31.077Z,101061.94
2022-09-09T23:59:58.618Z,101061.13
